Time;durP1;ratioP1;P1;durP2;ratioP2;P2;SDS_P1;SDS_P2;PMS_P1;PMS_P2;Temp;Humidity;BMP_temperature;BMP_pressure;BME280_temperature;BME280_humidity;BME280_pressure;Samples;Min_cycle;Max_cycle;Signal;HPM_P1;HPM_P2
2021/03/09 00:01:59;;;;;;;20.17;18.40;;;;;;;;;;5040029;28;20049;-80
2021/03/09 00:04:27;;;;;;;17.67;16.10;;;;;;;;;;5045992;28;20029;-80
2021/03/09 00:06:54;;;;;;;17.38;15.52;;;;;;;;;;5041924;28;20041;-80
2021/03/09 00:09:21;;;;;;;20.10;17.75;;;;;;;;;;5018909;28;20045;-80
2021/03/09 00:11:48;;;;;;;18.42;16.73;;;;;;;;;;5043374;28;20086;-80
2021/03/09 00:14:15;;;;;;;16.52;14.93;;;;;;;;;;5051007;28;20486;-80
2021/03/09 00:16:42;;;;;;;18.95;17.08;;;;;;;;;;5029233;28;20053;-80
2021/03/09 00:19:09;;;;;;;17.60;16.23;;;;;;;;;;5024593;28;20694;-80
2021/03/09 00:21:36;;;;;;;14.75;13.80;;;;;;;;;;5051951;28;20127;-80
2021/03/09 00:24:03;;;;;;;15.75;14.50;;;;;;;;;;5030458;28;20478;-80
2021/03/09 00:26:30;;;;;;;16.23;14.60;;;;;;;;;;5022691;28;20064;-80
2021/03/09 00:28:57;;;;;;;15.93;14.68;;;;;;;;;;5048336;28;20478;-80
2021/03/09 00:31:24;;;;;;;17.75;16.15;;;;;;;;;;5028506;28;20041;-80
2021/03/09 00:33:51;;;;;;;15.70;14.45;;;;;;;;;;5034031;28;20547;-80
2021/03/09 00:36:18;;;;;;;14.52;13.57;;;;;;;;;;5016157;28;20485;-80
2021/03/09 00:38:45;;;;;;;16.35;14.93;;;;;;;;;;5032761;28;20049;-80
2021/03/09 00:41:12;;;;;;;16.13;15.02;;;;;;;;;;5045107;28;20044;-80
2021/03/09 00:43:40;;;;;;;15.55;14.10;;;;;;;;;;5023663;28;20070;-80
2021/03/09 00:46:07;;;;;;;16.05;14.38;;;;;;;;;;5036046;28;21047;-80
2021/03/09 00:48:40;;;;;;;15.85;14.43;;;;;;;;;;5046648;28;20045;-80
2021/03/09 00:51:07;;;;;;;15.70;14.45;;;;;;;;;;5029060;28;20063;-80
2021/03/09 00:53:34;;;;;;;15.68;14.45;;;;;;;;;;5045458;28;20046;-80
2021/03/09 00:56:01;;;;;;;10.75;10.27;;;;;;;;;;5046007;28;20419;-80
2021/03/09 00:58:28;;;;;;;15.23;14.00;;;;;;;;;;5040231;28;20029;-80
2021/03/09 01:00:55;;;;;;;17.15;15.85;;;;;;;;;;5039214;28;20041;-80
2021/03/09 01:03:23;;;;;;;12.52;11.68;;;;;;;;;;5037635;28;20435;-80
2021/03/09 01:05:51;;;;;;;10.52;10.02;;;;;;;;;;5040990;28;20033;-80
2021/03/09 01:08:18;;;;;;;14.40;13.05;;;;;;;;;;5046249;28;20428;-80
2021/03/09 01:10:45;;;;;;;13.73;12.52;;;;;;;;;;5049811;28;20497;-80
2021/03/09 01:13:12;;;;;;;13.27;12.52;;;;;;;;;;5049535;28;20048;-80
2021/03/09 01:15:39;;;;;;;11.27;10.52;;;;;;;;;;5044891;28;20087;-80
2021/03/09 01:18:17;;;;;;;10.32;9.65;;;;;;;;;;5033621;28;20043;-80
2021/03/09 01:20:44;;;;;;;8.15;7.75;;;;;;;;;;5011993;28;20049;-80
2021/03/09 01:23:11;;;;;;;7.55;7.25;;;;;;;;;;5039244;28;20036;-80
2021/03/09 01:25:39;;;;;;;8.05;7.55;;;;;;;;;;5023776;28;20067;-80
2021/03/09 01:28:06;;;;;;;7.53;7.32;;;;;;;;;;5014013;28;20464;-80
2021/03/09 01:30:33;;;;;;;7.43;7.18;;;;;;;;;;5030369;28;20033;-80
2021/03/09 01:33:01;;;;;;;8.07;7.68;;;;;;;;;;5045140;28;20103;-80
2021/03/09 01:35:28;;;;;;;7.22;7.13;;;;;;;;;;5030092;28;20055;-80
2021/03/09 01:37:55;;;;;;;7.45;7.30;;;;;;;;;;5031693;28;20041;-80
2021/03/09 01:40:23;;;;;;;7.80;7.38;;;;;;;;;;5025123;28;20547;-80
2021/03/09 01:42:50;;;;;;;7.75;7.47;;;;;;;;;;5010069;28;20037;-80
2021/03/09 01:45:18;;;;;;;8.95;8.25;;;;;;;;;;5039711;28;20049;-80
2021/03/09 01:47:46;;;;;;;7.95;7.45;;;;;;;;;;5022111;28;20065;-80
2021/03/09 01:50:14;;;;;;;8.07;7.70;;;;;;;;;;5049339;28;20041;-80
2021/03/09 01:52:42;;;;;;;7.13;6.82;;;;;;;;;;5041013;28;20073;-80
2021/03/09 01:55:10;;;;;;;7.90;7.28;;;;;;;;;;5007288;28;20048;-80
2021/03/09 01:57:37;;;;;;;7.70;7.47;;;;;;;;;;5045805;28;20417;-80
2021/03/09 02:00:05;;;;;;;6.75;6.32;;;;;;;;;;5044032;28;20029;-80
2021/03/09 02:02:33;;;;;;;7.90;7.63;;;;;;;;;;5049355;28;20041;-80
2021/03/09 02:05:01;;;;;;;7.22;6.97;;;;;;;;;;5037953;28;20042;-80
2021/03/09 02:07:28;;;;;;;7.40;7.15;;;;;;;;;;5036165;28;20136;-80
2021/03/09 02:09:55;;;;;;;7.70;7.43;;;;;;;;;;5039147;28;20041;-80
2021/03/09 02:12:22;;;;;;;7.80;7.40;;;;;;;;;;5043873;28;20045;-80
2021/03/09 02:14:49;;;;;;;7.13;6.82;;;;;;;;;;5045233;28;20131;-80
2021/03/09 02:17:27;;;;;;;7.85;7.60;;;;;;;;;;5044188;28;20068;-80
2021/03/09 02:20:12;;;;;;;7.05;6.85;;;;;;;;;;5012439;28;20122;-80
2021/03/09 02:22:42;;;;;;;7.78;7.47;;;;;;;;;;5019710;28;20073;-80
2021/03/09 02:25:12;;;;;;;5.57;5.43;;;;;;;;;;5038479;28;20037;-80
2021/03/09 02:27:48;;;;;;;6.28;6.07;;;;;;;;;;5024356;28;20045;-80
2021/03/09 02:30:17;;;;;;;7.15;6.50;;;;;;;;;;5045336;28;20124;-80
2021/03/09 02:32:49;;;;;;;6.80;6.28;;;;;;;;;;5041714;28;20348;-80
2021/03/09 02:35:18;;;;;;;6.72;6.53;;;;;;;;;;5031309;28;20417;-80
2021/03/09 02:37:45;;;;;;;6.35;6.05;;;;;;;;;;5028711;28;20033;-80
2021/03/09 02:40:14;;;;;;;6.38;6.10;;;;;;;;;;5027130;28;20060;-80
2021/03/09 02:42:50;;;;;;;5.53;5.43;;;;;;;;;;5030127;28;20118;-80
2021/03/09 02:45:19;;;;;;;5.30;5.07;;;;;;;;;;5027089;28;20033;-80
2021/03/09 02:47:48;;;;;;;6.18;6.03;;;;;;;;;;5041913;28;20049;-80
2021/03/09 02:50:16;;;;;;;6.35;5.78;;;;;;;;;;5017460;28;20457;-80
2021/03/09 02:52:46;;;;;;;5.97;5.78;;;;;;;;;;5039457;28;20052;-80
2021/03/09 02:55:14;;;;;;;5.20;5.10;;;;;;;;;;5033783;28;20046;-80
2021/03/09 02:57:43;;;;;;;5.50;5.40;;;;;;;;;;5026926;28;20041;-80
2021/03/09 03:00:10;;;;;;;5.20;4.90;;;;;;;;;;5045143;28;20041;-80
2021/03/09 03:02:37;;;;;;;5.15;4.95;;;;;;;;;;5036477;28;20037;-80
2021/03/09 03:05:07;;;;;;;5.25;5.15;;;;;;;;;;5030945;28;20099;-80
2021/03/09 03:07:35;;;;;;;5.07;4.72;;;;;;;;;;5038776;28;20379;-80
2021/03/09 03:10:04;;;;;;;5.57;5.32;;;;;;;;;;5046385;28;20107;-80
2021/03/09 03:12:35;;;;;;;4.82;4.63;;;;;;;;;;5027380;28;20368;-80
2021/03/09 03:15:02;;;;;;;5.85;5.53;;;;;;;;;;5049349;28;20065;-80
2021/03/09 03:17:30;;;;;;;5.30;5.30;;;;;;;;;;5041614;28;20049;-80
2021/03/09 03:20:00;;;;;;;5.45;5.35;;;;;;;;;;5030847;28;20041;-80
2021/03/09 03:22:27;;;;;;;5.47;5.38;;;;;;;;;;5046295;28;20602;-80
2021/03/09 03:24:54;;;;;;;5.03;4.93;;;;;;;;;;5026404;28;20065;-80
2021/03/09 03:27:21;;;;;;;3.55;3.55;;;;;;;;;;5034153;28;20041;-80
2021/03/09 03:29:48;;;;;;;5.00;5.00;;;;;;;;;;5048109;28;20111;-80
2021/03/09 03:32:16;;;;;;;4.47;4.28;;;;;;;;;;5048827;28;20045;-80
2021/03/09 03:34:44;;;;;;;4.30;4.13;;;;;;;;;;5028530;28;20041;-80
2021/03/09 03:37:13;;;;;;;3.35;3.35;;;;;;;;;;5049825;28;20060;-80
2021/03/09 03:39:40;;;;;;;4.70;4.40;;;;;;;;;;5035557;28;20120;-80
2021/03/09 03:42:08;;;;;;;3.75;3.65;;;;;;;;;;5023561;28;20700;-80
2021/03/09 03:44:35;;;;;;;3.97;3.97;;;;;;;;;;5042137;28;20041;-80
2021/03/09 03:47:02;;;;;;;3.72;3.72;;;;;;;;;;5023822;28;20033;-80
2021/03/09 03:49:30;;;;;;;4.43;4.22;;;;;;;;;;5033899;28;20120;-80
2021/03/09 03:52:23;;;;;;;4.00;3.95;;;;;;;;;;5032543;28;20440;-80
2021/03/09 03:54:59;;;;;;;3.83;3.60;;;;;;;;;;5047340;28;20411;-80
2021/03/09 03:57:39;;;;;;;3.80;3.70;;;;;;;;;;5044152;28;20065;-80
2021/03/09 04:00:07;;;;;;;3.88;3.38;;;;;;;;;;5049682;28;20045;-80
2021/03/09 04:02:36;;;;;;;4.05;3.95;;;;;;;;;;5030649;28;20129;-80
2021/03/09 04:05:05;;;;;;;5.07;4.10;;;;;;;;;;5017350;28;20091;-80
2021/03/09 04:07:32;;;;;;;4.32;4.22;;;;;;;;;;5051895;28;20056;-80
2021/03/09 04:10:00;;;;;;;4.60;4.60;;;;;;;;;;5041832;28;20440;-80
2021/03/09 04:12:28;;;;;;;4.10;4.00;;;;;;;;;;5039940;28;20095;-80
2021/03/09 04:14:59;;;;;;;4.40;4.22;;;;;;;;;;5034140;28;20053;-80
2021/03/09 04:17:26;;;;;;;4.60;4.43;;;;;;;;;;5028462;28;20396;-79
2021/03/09 04:19:57;;;;;;;3.50;3.50;;;;;;;;;;5052208;28;20037;-80
2021/03/09 04:22:25;;;;;;;3.63;3.58;;;;;;;;;;5045725;28;20678;-80
2021/03/09 04:24:53;;;;;;;3.72;3.67;;;;;;;;;;5031475;28;20120;-80
2021/03/09 04:27:23;;;;;;;3.35;3.35;;;;;;;;;;5020193;28;20072;-80
2021/03/09 04:29:50;;;;;;;4.07;3.90;;;;;;;;;;5045626;28;20041;-80
2021/03/09 04:32:18;;;;;;;2.75;2.75;;;;;;;;;;5051997;28;20071;-80
2021/03/09 04:34:45;;;;;;;4.07;3.97;;;;;;;;;;5039373;28;20044;-80
2021/03/09 04:37:32;;;;;;;2.95;2.95;;;;;;;;;;5023911;28;20121;-80
2021/03/09 04:39:59;;;;;;;3.85;3.85;;;;;;;;;;5026942;28;20107;-80
2021/03/09 04:42:26;;;;;;;3.78;3.58;;;;;;;;;;5047092;28;20495;-80
2021/03/09 04:44:53;;;;;;;3.13;3.13;;;;;;;;;;5032209;28;20551;-80
2021/03/09 04:47:21;;;;;;;3.40;3.40;;;;;;;;;;5021012;28;20076;-80
2021/03/09 04:49:48;;;;;;;3.05;3.05;;;;;;;;;;5044513;28;20112;-80
2021/03/09 04:52:15;;;;;;;3.53;3.53;;;;;;;;;;5033155;28;20044;-80
2021/03/09 04:54:42;;;;;;;3.60;3.60;;;;;;;;;;5028795;28;20087;-80
2021/03/09 04:57:09;;;;;;;2.97;2.97;;;;;;;;;;5031067;28;20491;-80
2021/03/09 04:59:36;;;;;;;3.42;3.33;;;;;;;;;;5050921;28;20033;-80
2021/03/09 05:02:03;;;;;;;3.90;3.80;;;;;;;;;;5027605;28;20121;-80
2021/03/09 05:04:30;;;;;;;3.90;3.90;;;;;;;;;;5031838;28;20033;-80
2021/03/09 05:06:58;;;;;;;3.50;3.40;;;;;;;;;;5042557;28;20061;-80
2021/03/09 05:09:25;;;;;;;4.13;4.13;;;;;;;;;;5014724;28;20494;-80
2021/03/09 05:11:52;;;;;;;3.75;3.75;;;;;;;;;;5050639;28;20044;-80
2021/03/09 05:14:19;;;;;;;2.88;2.88;;;;;;;;;;5027512;28;20048;-80
2021/03/09 05:16:45;;;;;;;3.00;3.00;;;;;;;;;;5028692;28;20037;-80
2021/03/09 05:19:13;;;;;;;2.90;2.90;;;;;;;;;;5026883;28;20033;-80
2021/03/09 05:21:40;;;;;;;3.17;3.03;;;;;;;;;;5044423;28;20044;-80
2021/03/09 05:24:07;;;;;;;3.22;3.03;;;;;;;;;;5049650;28;20033;-80
2021/03/09 05:26:34;;;;;;;3.35;3.35;;;;;;;;;;5027588;28;20116;-80
2021/03/09 05:29:01;;;;;;;3.50;3.50;;;;;;;;;;5049388;28;20045;-80
2021/03/09 05:31:28;;;;;;;3.55;3.55;;;;;;;;;;5048299;28;20426;-80
2021/03/09 05:33:55;;;;;;;3.30;3.20;;;;;;;;;;5044944;28;20047;-80
2021/03/09 05:36:22;;;;;;;2.65;2.65;;;;;;;;;;5049711;28;20075;-80
2021/03/09 05:38:50;;;;;;;3.35;3.35;;;;;;;;;;5027480;28;20029;-80
2021/03/09 05:41:17;;;;;;;2.92;2.92;;;;;;;;;;5049400;28;20029;-80
2021/03/09 05:43:44;;;;;;;3.50;3.50;;;;;;;;;;5047917;28;20064;-80
2021/03/09 05:46:11;;;;;;;2.92;2.92;;;;;;;;;;5044983;28;20094;-80
2021/03/09 05:48:38;;;;;;;3.22;3.22;;;;;;;;;;5050574;28;20048;-80
2021/03/09 05:51:05;;;;;;;3.47;3.47;;;;;;;;;;5025606;28;20541;-80
2021/03/09 05:53:32;;;;;;;3.45;3.45;;;;;;;;;;5028578;28;20045;-80
2021/03/09 05:55:59;;;;;;;3.30;3.30;;;;;;;;;;5045046;28;20461;-80
2021/03/09 05:58:27;;;;;;;4.18;3.97;;;;;;;;;;5021828;28;20049;-80
2021/03/09 06:00:55;;;;;;;3.83;3.72;;;;;;;;;;5050948;28;20497;-80
2021/03/09 06:03:25;;;;;;;4.13;4.13;;;;;;;;;;5029828;28;20072;-80
2021/03/09 06:05:52;;;;;;;3.60;3.60;;;;;;;;;;5031534;28;20060;-80
2021/03/09 06:08:19;;;;;;;2.92;2.92;;;;;;;;;;5029804;28;20633;-80
2021/03/09 06:10:49;;;;;;;2.92;2.92;;;;;;;;;;5043823;28;20061;-80
2021/03/09 06:13:35;;;;;;;2.60;2.60;;;;;;;;;;5035955;28;20128;-80
2021/03/09 06:16:02;;;;;;;3.42;3.42;;;;;;;;;;5043988;28;20041;-80
2021/03/09 06:18:29;;;;;;;2.72;2.72;;;;;;;;;;5044436;28;20069;-80
2021/03/09 06:21:09;;;;;;;3.80;3.70;;;;;;;;;;5047176;28;20065;-80
2021/03/09 06:23:36;;;;;;;3.38;3.38;;;;;;;;;;5044079;28;20098;-80
2021/03/09 06:26:04;;;;;;;3.42;3.42;;;;;;;;;;5031807;28;20437;-81
2021/03/09 06:28:32;;;;;;;2.78;2.78;;;;;;;;;;5043012;28;20077;-81
2021/03/09 06:30:59;;;;;;;3.60;3.60;;;;;;;;;;5046401;28;20040;-81
2021/03/09 06:33:31;;;;;;;3.70;3.70;;;;;;;;;;5048110;28;20057;-81
2021/03/09 06:36:01;;;;;;;3.78;3.78;;;;;;;;;;5042285;28;20085;-82
2021/03/09 06:38:29;;;;;;;3.42;3.42;;;;;;;;;;5031169;28;20049;-82
2021/03/09 06:41:18;;;;;;;3.85;3.78;;;;;;;;;;5044639;28;20072;-81
2021/03/09 06:43:46;;;;;;;4.30;4.30;;;;;;;;;;5045062;28;20067;-81
2021/03/09 06:46:20;;;;;;;3.55;3.55;;;;;;;;;;5041112;28;20036;-81
2021/03/09 06:48:53;;;;;;;3.58;3.58;;;;;;;;;;5044511;28;20052;-81
2021/03/09 06:51:36;;;;;;;3.65;3.55;;;;;;;;;;5029223;28;20056;-82
2021/03/09 06:54:07;;;;;;;4.18;4.13;;;;;;;;;;5046344;28;20052;-82
2021/03/09 06:56:35;;;;;;;4.25;4.25;;;;;;;;;;5026051;28;20064;-82
2021/03/09 06:59:19;;;;;;;3.85;3.85;;;;;;;;;;5028168;28;20040;-82
2021/03/09 07:02:05;;;;;;;3.85;3.85;;;;;;;;;;5043847;28;20132;-81
2021/03/09 07:04:32;;;;;;;4.20;4.20;;;;;;;;;;5033698;28;20041;-81
2021/03/09 07:06:59;;;;;;;3.45;3.45;;;;;;;;;;5033928;28;20071;-81
2021/03/09 07:09:26;;;;;;;4.05;4.05;;;;;;;;;;5045468;28;20076;-81
2021/03/09 07:11:54;;;;;;;4.53;4.53;;;;;;;;;;5036712;28;20041;-81
2021/03/09 07:14:21;;;;;;;4.45;4.25;;;;;;;;;;5030592;28;20429;-81
2021/03/09 07:16:49;;;;;;;4.47;4.47;;;;;;;;;;5050091;28;20083;-81
2021/03/09 07:19:29;;;;;;;8.48;5.70;;;;;;;;;;5050406;28;20401;-81
2021/03/09 07:21:57;;;;;;;4.32;4.32;;;;;;;;;;5027937;28;20088;-81
2021/03/09 07:24:25;;;;;;;4.10;4.10;;;;;;;;;;5031165;28;20045;-81
2021/03/09 07:26:55;;;;;;;7.57;4.10;;;;;;;;;;5030824;28;20033;-81
2021/03/09 07:29:24;;;;;;;3.03;3.03;;;;;;;;;;5049443;28;20050;-81
2021/03/09 07:31:55;;;;;;;3.55;3.40;;;;;;;;;;5049860;28;20045;-81
2021/03/09 07:34:23;;;;;;;3.65;3.58;;;;;;;;;;5046565;28;20045;-81
2021/03/09 07:36:51;;;;;;;3.58;3.47;;;;;;;;;;5035801;28;20045;-81
2021/03/09 07:39:18;;;;;;;3.00;2.90;;;;;;;;;;5049630;28;20485;-81
2021/03/09 07:41:46;;;;;;;3.10;3.10;;;;;;;;;;5033198;28;20461;-81
2021/03/09 07:44:13;;;;;;;3.78;3.58;;;;;;;;;;5040616;28;20582;-81
2021/03/09 07:46:42;;;;;;;4.00;4.00;;;;;;;;;;5040718;28;20125;-81
2021/03/09 07:49:09;;;;;;;4.70;4.50;;;;;;;;;;5034875;28;20104;-81
2021/03/09 07:51:35;;;;;;;5.75;3.70;;;;;;;;;;5040471;28;20594;-81
2021/03/09 07:54:11;;;;;;;3.38;3.15;;;;;;;;;;5028062;28;20034;-82
2021/03/09 07:56:58;;;;;;;3.83;3.72;;;;;;;;;;5031969;28;20029;-82
2021/03/09 07:59:24;;;;;;;3.70;3.70;;;;;;;;;;5045456;28;20022;-82
2021/03/09 08:01:51;;;;;;;3.88;3.88;;;;;;;;;;5035746;28;20025;-82
2021/03/09 08:04:17;;;;;;;3.58;3.55;;;;;;;;;;5031240;28;20442;-82
2021/03/09 08:06:44;;;;;;;6.90;5.93;;;;;;;;;;5032198;28;20040;-82
2021/03/09 08:09:34;;;;;;;4.20;4.10;;;;;;;;;;5048694;28;20033;-82
2021/03/09 08:12:01;;;;;;;5.25;5.15;;;;;;;;;;5022487;28;20056;-81
2021/03/09 08:14:27;;;;;;;4.43;4.32;;;;;;;;;;5041023;28;20122;-82
2021/03/09 08:16:54;;;;;;;4.35;4.28;;;;;;;;;;5025235;28;20120;-81
2021/03/09 08:19:25;;;;;;;5.03;5.03;;;;;;;;;;5036472;28;20040;-82
2021/03/09 08:22:18;;;;;;;4.50;4.50;;;;;;;;;;5032199;28;20094;-81
2021/03/09 08:24:45;;;;;;;4.35;4.35;;;;;;;;;;5026740;28;20387;-81
2021/03/09 08:27:42;;;;;;;3.40;3.40;;;;;;;;;;5050190;28;20108;-81
2021/03/09 08:30:09;;;;;;;3.95;3.95;;;;;;;;;;5032413;28;20082;-81
2021/03/09 08:32:38;;;;;;;4.18;4.18;;;;;;;;;;5029633;28;20080;-81
2021/03/09 08:35:15;;;;;;;3.97;3.78;;;;;;;;;;5036854;28;20067;-81
2021/03/09 08:37:48;;;;;;;6.82;6.72;;;;;;;;;;5031329;28;20053;-81
2021/03/09 08:40:16;;;;;;;4.80;4.70;;;;;;;;;;5029001;28;20045;-81
2021/03/09 08:43:01;;;;;;;5.28;5.07;;;;;;;;;;5041758;28;20061;-82
2021/03/09 08:45:34;;;;;;;4.63;4.53;;;;;;;;;;5029680;28;20045;-81
2021/03/09 08:48:01;;;;;;;;;;;;;;;;;;5032926;28;20032;-81
2021/03/09 08:50:42;;;;;;;4.45;4.15;;;;;;;;;;5012147;28;20705;-81
2021/03/09 08:53:28;;;;;;;5.55;5.45;;;;;;;;;;5039822;28;20045;-81
2021/03/09 08:55:59;;;;;;;4.85;4.60;;;;;;;;;;5032046;28;20534;-81
2021/03/09 08:58:26;;;;;;;4.88;4.68;;;;;;;;;;5031810;28;20725;-82
2021/03/09 09:00:53;;;;;;;5.38;5.28;;;;;;;;;;5033921;28;20065;-82
2021/03/09 09:03:34;;;;;;;5.60;5.50;;;;;;;;;;5048611;28;20454;-82
2021/03/09 09:06:01;;;;;;;6.75;6.28;;;;;;;;;;5044904;28;20393;-82
2021/03/09 09:08:29;;;;;;;5.13;5.03;;;;;;;;;;5016536;28;20049;-82
2021/03/09 09:10:57;;;;;;;6.07;5.78;;;;;;;;;;5029837;28;20065;-81
2021/03/09 09:13:30;;;;;;;5.65;5.32;;;;;;;;;;5018978;28;20115;-81
2021/03/09 09:15:58;;;;;;;6.28;6.18;;;;;;;;;;5048322;28;20052;-81
2021/03/09 09:18:25;;;;;;;6.72;6.38;;;;;;;;;;5043186;28;20086;-81
2021/03/09 09:20:52;;;;;;;8.93;8.52;;;;;;;;;;5016152;28;20045;-81
2021/03/09 09:23:22;;;;;;;7.10;6.80;;;;;;;;;;5030502;28;20148;-81
2021/03/09 09:25:51;;;;;;;5.93;5.82;;;;;;;;;;5033064;28;20028;-81
2021/03/09 09:28:27;;;;;;;6.55;6.10;;;;;;;;;;5029458;28;20055;-81
2021/03/09 09:30:59;;;;;;;7.07;6.97;;;;;;;;;;5025564;28;20099;-81
2021/03/09 09:33:54;;;;;;;6.28;6.18;;;;;;;;;;5050641;28;20421;-81
2021/03/09 09:36:23;;;;;;;7.00;6.60;;;;;;;;;;5029321;28;20523;-81
2021/03/09 09:38:54;;;;;;;5.18;4.88;;;;;;;;;;5038804;28;20505;-81
2021/03/09 09:41:22;;;;;;;5.88;5.50;;;;;;;;;;5050327;28;20087;-81
2021/03/09 09:43:49;;;;;;;5.22;4.93;;;;;;;;;;5044913;28;20033;-81
2021/03/09 09:46:23;;;;;;;5.72;5.47;;;;;;;;;;5030668;28;20493;-81
2021/03/09 09:48:52;;;;;;;5.65;5.38;;;;;;;;;;5046053;28;20040;-81
2021/03/09 09:51:20;;;;;;;5.20;5.00;;;;;;;;;;5027665;28;20091;-81
2021/03/09 09:53:49;;;;;;;5.07;4.78;;;;;;;;;;5048780;28;20521;-81
2021/03/09 09:56:19;;;;;;;5.13;4.75;;;;;;;;;;5030423;28;20067;-81
2021/03/09 09:58:48;;;;;;;4.60;4.40;;;;;;;;;;5031876;28;20120;-81
2021/03/09 10:01:16;;;;;;;5.95;5.70;;;;;;;;;;5028816;28;20029;-81
2021/03/09 10:03:56;;;;;;;5.72;5.40;;;;;;;;;;5043207;28;20037;-81
2021/03/09 10:06:25;;;;;;;4.50;4.40;;;;;;;;;;5031800;28;20076;-81
2021/03/09 10:08:52;;;;;;;4.43;4.32;;;;;;;;;;5043668;28;20045;-81
2021/03/09 10:11:20;;;;;;;5.50;5.10;;;;;;;;;;5039086;28;20098;-81
2021/03/09 10:13:47;;;;;;;5.00;4.80;;;;;;;;;;5029119;28;20061;-81
2021/03/09 10:16:14;;;;;;;4.88;4.68;;;;;;;;;;5014534;28;20048;-81
2021/03/09 10:18:41;;;;;;;5.03;4.63;;;;;;;;;;5047102;28;20029;-81
2021/03/09 10:21:12;;;;;;;4.15;4.05;;;;;;;;;;5012904;28;20041;-82
2021/03/09 10:24:06;;;;;;;5.20;5.00;;;;;;;;;;5032760;28;20044;-82
2021/03/09 10:26:34;;;;;;;7.32;5.45;;;;;;;;;;5012419;28;20049;-81
2021/03/09 10:29:18;;;;;;;5.32;5.13;;;;;;;;;;5027334;28;20041;-81
2021/03/09 10:31:48;;;;;;;5.43;5.20;;;;;;;;;;5022413;28;20041;-81
2021/03/09 10:34:19;;;;;;;6.38;5.78;;;;;;;;;;5036187;28;20050;-81
2021/03/09 10:36:47;;;;;;;5.07;4.72;;;;;;;;;;5044231;28;20049;-81
2021/03/09 10:39:14;;;;;;;6.47;5.93;;;;;;;;;;5044799;28;20351;-81
2021/03/09 10:41:42;;;;;;;5.30;5.10;;;;;;;;;;5043552;28;20033;-81
2021/03/09 10:44:28;;;;;;;5.57;5.22;;;;;;;;;;5037294;28;20048;-81
2021/03/09 10:46:55;;;;;;;5.07;4.88;;;;;;;;;;5026175;28;20056;-81
2021/03/09 10:49:22;;;;;;;5.72;5.53;;;;;;;;;;5013321;28;20389;-81
2021/03/09 10:52:00;;;;;;;6.22;5.72;;;;;;;;;;5051526;28;20102;-81
2021/03/09 10:54:27;;;;;;;7.60;6.95;;;;;;;;;;5043458;28;20522;-81
2021/03/09 10:56:54;;;;;;;6.22;5.72;;;;;;;;;;5019240;28;20040;-81
2021/03/09 10:59:22;;;;;;;6.55;6.25;;;;;;;;;;5048479;28;20037;-81
2021/03/09 11:01:49;;;;;;;8.30;7.63;;;;;;;;;;5049842;28;20496;-81
2021/03/09 11:04:16;;;;;;;5.53;5.32;;;;;;;;;;5050632;28;20052;-81
2021/03/09 11:06:43;;;;;;;5.95;5.68;;;;;;;;;;5047650;28;20463;-80
2021/03/09 11:09:11;;;;;;;5.55;5.35;;;;;;;;;;5030664;28;20095;-81
2021/03/09 11:11:38;;;;;;;6.32;6.13;;;;;;;;;;5017342;28;20402;-81
2021/03/09 11:14:05;;;;;;;5.55;5.13;;;;;;;;;;5052693;28;20053;-81
2021/03/09 11:16:32;;;;;;;5.35;5.25;;;;;;;;;;5050017;28;20056;-81
2021/03/09 11:18:59;;;;;;;5.32;5.22;;;;;;;;;;5054684;28;20028;-81
2021/03/09 11:21:27;;;;;;;6.40;6.30;;;;;;;;;;5018207;28;20051;-81
2021/03/09 11:23:54;;;;;;;5.97;5.82;;;;;;;;;;5047307;28;20074;-81
2021/03/09 11:26:26;;;;;;;5.13;5.03;;;;;;;;;;5052945;28;20124;-81
2021/03/09 11:28:54;;;;;;;6.07;5.97;;;;;;;;;;5029447;28;20099;-81
2021/03/09 11:31:21;;;;;;;7.03;6.75;;;;;;;;;;5031529;28;20057;-81
2021/03/09 11:33:49;;;;;;;6.25;5.97;;;;;;;;;;5049812;28;20063;-81
2021/03/09 11:36:16;;;;;;;7.78;7.32;;;;;;;;;;5048181;28;20045;-81
2021/03/09 11:38:44;;;;;;;6.55;6.35;;;;;;;;;;5027124;28;20044;-81
2021/03/09 11:41:16;;;;;;;6.22;6.05;;;;;;;;;;5030743;28;20040;-81
2021/03/09 11:43:43;;;;;;;5.93;5.72;;;;;;;;;;5050959;28;20075;-81
2021/03/09 11:46:10;;;;;;;5.47;5.32;;;;;;;;;;5018583;28;20083;-80
2021/03/09 11:48:39;;;;;;;10.65;9.70;;;;;;;;;;5029722;28;20044;-81
2021/03/09 11:51:07;;;;;;;5.95;5.80;;;;;;;;;;5018281;28;20091;-81
2021/03/09 11:53:34;;;;;;;6.13;5.75;;;;;;;;;;5043535;28;20138;-81
2021/03/09 11:56:01;;;;;;;8.15;7.57;;;;;;;;;;5053450;28;20044;-81
2021/03/09 11:58:28;;;;;;;7.05;6.60;;;;;;;;;;5046144;28;20480;-81
2021/03/09 12:00:55;;;;;;;5.40;5.30;;;;;;;;;;5049947;28;20061;-81
2021/03/09 12:03:23;;;;;;;7.95;5.28;;;;;;;;;;5034411;28;20040;-81
2021/03/09 12:05:50;;;;;;;3.92;3.83;;;;;;;;;;5036540;28;20512;-81
2021/03/09 12:08:17;;;;;;;4.70;4.60;;;;;;;;;;5039842;28;20090;-81
2021/03/09 12:10:44;;;;;;;4.35;4.10;;;;;;;;;;5033572;28;20103;-81
2021/03/09 12:13:11;;;;;;;4.40;4.30;;;;;;;;;;5021891;28;20033;-81
2021/03/09 12:15:38;;;;;;;5.13;4.93;;;;;;;;;;5036137;28;20041;-81
2021/03/09 12:18:06;;;;;;;5.63;5.43;;;;;;;;;;5031770;28;20065;-81
2021/03/09 12:20:33;;;;;;;4.95;4.85;;;;;;;;;;5037756;28;20040;-81
2021/03/09 12:23:00;;;;;;;5.30;5.10;;;;;;;;;;5049994;28;20052;-81
2021/03/09 12:25:27;;;;;;;5.15;4.95;;;;;;;;;;5056357;28;20103;-81
2021/03/09 12:27:54;;;;;;;6.22;6.03;;;;;;;;;;5036271;28;20087;-81
2021/03/09 12:30:22;;;;;;;5.25;4.95;;;;;;;;;;5035616;28;20037;-81
2021/03/09 12:32:50;;;;;;;6.50;6.18;;;;;;;;;;5055291;28;20504;-81
2021/03/09 12:35:18;;;;;;;6.97;6.80;;;;;;;;;;5033857;28;20059;-81
2021/03/09 12:37:45;;;;;;;8.35;7.97;;;;;;;;;;5040107;28;20539;-81
2021/03/09 12:40:12;;;;;;;8.05;7.85;;;;;;;;;;5051428;28;20037;-81
2021/03/09 12:42:39;;;;;;;8.15;7.75;;;;;;;;;;5053545;28;20100;-81
2021/03/09 12:45:06;;;;;;;9.38;8.98;;;;;;;;;;5047928;28;20033;-81
2021/03/09 12:47:34;;;;;;;9.95;9.52;;;;;;;;;;5027916;28;20131;-81
2021/03/09 12:50:01;;;;;;;9.00;8.73;;;;;;;;;;5051184;28;20063;-81
2021/03/09 12:52:29;;;;;;;9.88;9.27;;;;;;;;;;5030862;28;20064;-81
2021/03/09 12:54:56;;;;;;;9.57;9.05;;;;;;;;;;5040986;28;20432;-81
2021/03/09 12:57:23;;;;;;;9.00;8.60;;;;;;;;;;5048939;28;20037;-81
2021/03/09 12:59:50;;;;;;;8.77;8.23;;;;;;;;;;5031758;28;20083;-81
2021/03/09 13:02:17;;;;;;;8.48;8.05;;;;;;;;;;5051049;28;20073;-81
2021/03/09 13:04:44;;;;;;;7.38;6.97;;;;;;;;;;5030177;28;20512;-81
2021/03/09 13:07:11;;;;;;;7.45;7.20;;;;;;;;;;5035807;28;20033;-82
2021/03/09 13:09:38;;;;;;;8.60;8.23;;;;;;;;;;5014589;28;20536;-82
2021/03/09 13:12:06;;;;;;;9.63;9.02;;;;;;;;;;5032663;28;20049;-82
2021/03/09 13:14:33;;;;;;;8.32;7.93;;;;;;;;;;5036604;28;20067;-81
2021/03/09 13:17:00;;;;;;;7.93;7.47;;;;;;;;;;5012704;28;20121;-81
2021/03/09 13:19:29;;;;;;;8.45;7.78;;;;;;;;;;5032273;28;20045;-81
2021/03/09 13:21:58;;;;;;;8.30;7.80;;;;;;;;;;5027970;28;20037;-82
2021/03/09 13:24:25;;;;;;;7.38;7.07;;;;;;;;;;5045833;28;20079;-82
2021/03/09 13:26:53;;;;;;;8.30;7.82;;;;;;;;;;5033655;28;20037;-82
2021/03/09 13:29:20;;;;;;;6.90;6.60;;;;;;;;;;5043137;28;20049;-81
2021/03/09 13:31:47;;;;;;;8.23;7.93;;;;;;;;;;5030408;28;20478;-81
2021/03/09 13:34:14;;;;;;;8.65;8.00;;;;;;;;;;5046417;28;20037;-81
2021/03/09 13:36:41;;;;;;;8.88;8.20;;;;;;;;;;5027823;28;20410;-81
2021/03/09 13:39:08;;;;;;;9.35;8.85;;;;;;;;;;5031067;28;20037;-81
2021/03/09 13:41:35;;;;;;;9.52;9.15;;;;;;;;;;5014464;28;20535;-81
2021/03/09 13:44:02;;;;;;;8.38;8.15;;;;;;;;;;5050735;28;20095;-81
2021/03/09 13:46:30;;;;;;;8.70;8.40;;;;;;;;;;5042427;28;20029;-81
2021/03/09 13:48:57;;;;;;;9.50;9.02;;;;;;;;;;5032613;28;20705;-81
2021/03/09 13:51:24;;;;;;;10.27;9.80;;;;;;;;;;5045239;28;20099;-81
2021/03/09 13:53:51;;;;;;;10.25;9.95;;;;;;;;;;5029505;28;20046;-81
2021/03/09 13:56:18;;;;;;;11.55;10.88;;;;;;;;;;5033719;28;20041;-81
2021/03/09 13:58:45;;;;;;;11.05;10.65;;;;;;;;;;5042479;28;20473;-81
2021/03/09 14:01:12;;;;;;;10.32;9.75;;;;;;;;;;5049993;28;20455;-81
2021/03/09 14:03:39;;;;;;;13.10;11.80;;;;;;;;;;5024467;28;20040;-81
2021/03/09 14:06:07;;;;;;;11.70;10.93;;;;;;;;;;5034794;28;20076;-81
2021/03/09 14:08:34;;;;;;;12.48;11.52;;;;;;;;;;5048703;28;20067;-81
2021/03/09 14:11:01;;;;;;;13.55;12.75;;;;;;;;;;5024949;28;20037;-81
2021/03/09 14:13:28;;;;;;;11.30;10.60;;;;;;;;;;5031505;28;20080;-81
2021/03/09 14:15:56;;;;;;;12.48;10.70;;;;;;;;;;5043719;28;20406;-81
2021/03/09 14:18:23;;;;;;;12.10;11.50;;;;;;;;;;5047404;28;20120;-81
2021/03/09 14:20:50;;;;;;;11.70;11.10;;;;;;;;;;5030204;28;20059;-83
2021/03/09 14:23:17;;;;;;;12.60;11.80;;;;;;;;;;5045051;28;20029;-81
2021/03/09 14:25:45;;;;;;;12.27;11.00;;;;;;;;;;5030140;28;20506;-81
2021/03/09 14:28:13;;;;;;;13.70;12.40;;;;;;;;;;5043693;28;20382;-81
2021/03/09 14:30:41;;;;;;;14.63;13.52;;;;;;;;;;5031613;28;20579;-81
2021/03/09 14:33:08;;;;;;;13.40;12.38;;;;;;;;;;5030488;28;20041;-81
2021/03/09 14:35:35;;;;;;;12.63;11.60;;;;;;;;;;5042232;28;20057;-81
2021/03/09 14:38:02;;;;;;;15.30;14.18;;;;;;;;;;5030037;28;20056;-81
2021/03/09 14:40:31;;;;;;;17.27;15.95;;;;;;;;;;5025398;28;20621;-81
2021/03/09 14:42:58;;;;;;;14.00;12.73;;;;;;;;;;5015358;28;20041;-81
2021/03/09 14:45:25;;;;;;;12.40;11.70;;;;;;;;;;5028919;28;20053;-81
2021/03/09 14:47:52;;;;;;;11.57;10.95;;;;;;;;;;5029777;28;20033;-81
2021/03/09 14:50:25;;;;;;;11.70;10.85;;;;;;;;;;5048525;28;20051;-81